sensor_id;sensor_type;location;lat;lon;timestamp;P1;durP1;ratioP1;P2;durP2;ratioP2
11671;SDS011;5892;43.412;24.612;2023-11-19T00:00:18;1.30;;;1.20;;
11671;SDS011;5892;43.412;24.612;2023-11-19T00:02:47;1.13;;;1.10;;
11671;SDS011;5892;43.412;24.612;2023-11-19T00:05:13;1.37;;;1.27;;
11671;SDS011;5892;43.412;24.612;2023-11-19T00:07:42;2.70;;;1.40;;
11671;SDS011;5892;43.412;24.612;2023-11-19T00:10:09;1.53;;;1.40;;
11671;SDS011;5892;43.412;24.612;2023-11-19T00:12:37;1.40;;;1.20;;
11671;SDS011;5892;43.412;24.612;2023-11-19T00:15:05;1.50;;;1.40;;
11671;SDS011;5892;43.412;24.612;2023-11-19T00:17:36;1.50;;;1.40;;
11671;SDS011;5892;43.412;24.612;2023-11-19T00:20:05;1.70;;;1.60;;
11671;SDS011;5892;43.412;24.612;2023-11-19T00:22:33;3.13;;;1.40;;
11671;SDS011;5892;43.412;24.612;2023-11-19T00:25:02;1.50;;;1.40;;
11671;SDS011;5892;43.412;24.612;2023-11-19T00:27:31;3.07;;;1.40;;
11671;SDS011;5892;43.412;24.612;2023-11-19T00:29:58;1.67;;;1.50;;
11671;SDS011;5892;43.412;24.612;2023-11-19T00:32:25;1.83;;;1.60;;
11671;SDS011;5892;43.412;24.612;2023-11-19T00:34:53;1.80;;;1.70;;
11671;SDS011;5892;43.412;24.612;2023-11-19T00:37:19;2.90;;;1.50;;
11671;SDS011;5892;43.412;24.612;2023-11-19T00:39:46;1.60;;;1.50;;
11671;SDS011;5892;43.412;24.612;2023-11-19T00:42:15;1.97;;;1.47;;
11671;SDS011;5892;43.412;24.612;2023-11-19T00:44:42;1.63;;;1.53;;
11671;SDS011;5892;43.412;24.612;2023-11-19T00:47:09;1.70;;;1.60;;
11671;SDS011;5892;43.412;24.612;2023-11-19T00:49:37;1.70;;;1.60;;
11671;SDS011;5892;43.412;24.612;2023-11-19T00:52:04;1.70;;;1.60;;
11671;SDS011;5892;43.412;24.612;2023-11-19T00:54:31;1.50;;;1.40;;
11671;SDS011;5892;43.412;24.612;2023-11-19T00:56:58;1.70;;;1.60;;
11671;SDS011;5892;43.412;24.612;2023-11-19T00:59:28;1.67;;;1.57;;
11671;SDS011;5892;43.412;24.612;2023-11-19T01:01:55;2.00;;;1.80;;
11671;SDS011;5892;43.412;24.612;2023-11-19T01:04:22;1.70;;;1.60;;
11671;SDS011;5892;43.412;24.612;2023-11-19T01:06:50;2.90;;;1.80;;
11671;SDS011;5892;43.412;24.612;2023-11-19T01:09:16;2.10;;;1.90;;
11671;SDS011;5892;43.412;24.612;2023-11-19T01:11:43;2.00;;;1.80;;
11671;SDS011;5892;43.412;24.612;2023-11-19T01:14:11;1.80;;;1.70;;
11671;SDS011;5892;43.412;24.612;2023-11-19T01:16:41;1.90;;;1.70;;
11671;SDS011;5892;43.412;24.612;2023-11-19T01:19:09;1.80;;;1.70;;
11671;SDS011;5892;43.412;24.612;2023-11-19T01:21:36;3.47;;;1.87;;
11671;SDS011;5892;43.412;24.612;2023-11-19T01:24:05;1.90;;;1.80;;
11671;SDS011;5892;43.412;24.612;2023-11-19T01:26:34;2.10;;;1.90;;
11671;SDS011;5892;43.412;24.612;2023-11-19T01:29:01;1.77;;;1.67;;
11671;SDS011;5892;43.412;24.612;2023-11-19T01:31:29;3.27;;;1.83;;
11671;SDS011;5892;43.412;24.612;2023-11-19T01:33:58;2.20;;;2.00;;
11671;SDS011;5892;43.412;24.612;2023-11-19T01:36:25;1.97;;;1.77;;
11671;SDS011;5892;43.412;24.612;2023-11-19T01:38:52;2.10;;;1.90;;
11671;SDS011;5892;43.412;24.612;2023-11-19T01:41:19;2.03;;;1.83;;
11671;SDS011;5892;43.412;24.612;2023-11-19T01:43:45;2.03;;;1.73;;
11671;SDS011;5892;43.412;24.612;2023-11-19T01:46:13;1.90;;;1.80;;
11671;SDS011;5892;43.412;24.612;2023-11-19T01:48:41;1.90;;;1.70;;
11671;SDS011;5892;43.412;24.612;2023-11-19T01:51:12;2.70;;;1.73;;
11671;SDS011;5892;43.412;24.612;2023-11-19T01:53:41;2.13;;;1.93;;
11671;SDS011;5892;43.412;24.612;2023-11-19T01:56:10;2.47;;;2.17;;
11671;SDS011;5892;43.412;24.612;2023-11-19T01:58:41;2.47;;;2.00;;
11671;SDS011;5892;43.412;24.612;2023-11-19T02:01:09;2.20;;;2.00;;
11671;SDS011;5892;43.412;24.612;2023-11-19T02:03:37;2.20;;;2.00;;
11671;SDS011;5892;43.412;24.612;2023-11-19T02:06:05;2.10;;;1.90;;
11671;SDS011;5892;43.412;24.612;2023-11-19T02:08:37;2.47;;;2.27;;
11671;SDS011;5892;43.412;24.612;2023-11-19T02:11:04;2.13;;;1.90;;
11671;SDS011;5892;43.412;24.612;2023-11-19T02:13:32;2.53;;;2.00;;
11671;SDS011;5892;43.412;24.612;2023-11-19T02:16:01;1.93;;;1.80;;
11671;SDS011;5892;43.412;24.612;2023-11-19T02:18:28;2.73;;;1.93;;
11671;SDS011;5892;43.412;24.612;2023-11-19T02:20:55;2.20;;;1.90;;
11671;SDS011;5892;43.412;24.612;2023-11-19T02:23:23;2.47;;;2.17;;
11671;SDS011;5892;43.412;24.612;2023-11-19T02:25:57;3.47;;;2.43;;
11671;SDS011;5892;43.412;24.612;2023-11-19T02:28:31;2.73;;;2.23;;
11671;SDS011;5892;43.412;24.612;2023-11-19T02:30:59;2.30;;;2.10;;
11671;SDS011;5892;43.412;24.612;2023-11-19T02:33:26;2.30;;;2.10;;
11671;SDS011;5892;43.412;24.612;2023-11-19T02:35:53;2.80;;;2.10;;
11671;SDS011;5892;43.412;24.612;2023-11-19T02:38:20;2.43;;;2.17;;
11671;SDS011;5892;43.412;24.612;2023-11-19T02:40:48;2.30;;;2.10;;
11671;SDS011;5892;43.412;24.612;2023-11-19T02:43:15;2.40;;;2.20;;
11671;SDS011;5892;43.412;24.612;2023-11-19T02:45:44;2.40;;;2.10;;
11671;SDS011;5892;43.412;24.612;2023-11-19T02:48:11;2.20;;;2.00;;
11671;SDS011;5892;43.412;24.612;2023-11-19T02:50:39;2.20;;;2.00;;
11671;SDS011;5892;43.412;24.612;2023-11-19T02:53:06;2.13;;;1.93;;
11671;SDS011;5892;43.412;24.612;2023-11-19T02:55:33;2.30;;;2.10;;
11671;SDS011;5892;43.412;24.612;2023-11-19T02:58:03;2.30;;;2.10;;
11671;SDS011;5892;43.412;24.612;2023-11-19T03:00:46;2.50;;;2.20;;
11671;SDS011;5892;43.412;24.612;2023-11-19T03:03:19;2.97;;;2.67;;
11671;SDS011;5892;43.412;24.612;2023-11-19T03:05:47;2.30;;;2.10;;
11671;SDS011;5892;43.412;24.612;2023-11-19T03:08:15;2.40;;;2.20;;
11671;SDS011;5892;43.412;24.612;2023-11-19T03:10:42;2.63;;;2.43;;
11671;SDS011;5892;43.412;24.612;2023-11-19T03:13:11;2.70;;;2.50;;
11671;SDS011;5892;43.412;24.612;2023-11-19T03:15:40;3.30;;;2.50;;
11671;SDS011;5892;43.412;24.612;2023-11-19T03:18:09;3.20;;;2.30;;
11671;SDS011;5892;43.412;24.612;2023-11-19T03:20:36;4.17;;;2.53;;
11671;SDS011;5892;43.412;24.612;2023-11-19T03:23:05;2.40;;;2.20;;
11671;SDS011;5892;43.412;24.612;2023-11-19T03:25:32;2.90;;;2.50;;
11671;SDS011;5892;43.412;24.612;2023-11-19T03:27:59;2.97;;;2.70;;
11671;SDS011;5892;43.412;24.612;2023-11-19T03:30:28;3.33;;;2.83;;
11671;SDS011;5892;43.412;24.612;2023-11-19T03:32:55;2.60;;;2.40;;
11671;SDS011;5892;43.412;24.612;2023-11-19T03:35:24;2.60;;;2.40;;
11671;SDS011;5892;43.412;24.612;2023-11-19T03:37:53;2.70;;;2.50;;
11671;SDS011;5892;43.412;24.612;2023-11-19T03:40:19;3.23;;;2.43;;
11671;SDS011;5892;43.412;24.612;2023-11-19T03:42:46;3.80;;;2.53;;
11671;SDS011;5892;43.412;24.612;2023-11-19T03:45:12;2.60;;;2.30;;
11671;SDS011;5892;43.412;24.612;2023-11-19T03:47:41;3.00;;;2.60;;
11671;SDS011;5892;43.412;24.612;2023-11-19T03:50:08;2.87;;;2.57;;
11671;SDS011;5892;43.412;24.612;2023-11-19T03:52:36;3.00;;;2.67;;
11671;SDS011;5892;43.412;24.612;2023-11-19T03:55:03;3.40;;;2.67;;
11671;SDS011;5892;43.412;24.612;2023-11-19T03:57:31;4.57;;;2.80;;
11671;SDS011;5892;43.412;24.612;2023-11-19T03:59:58;2.70;;;2.50;;
11671;SDS011;5892;43.412;24.612;2023-11-19T04:02:28;5.07;;;2.90;;
11671;SDS011;5892;43.412;24.612;2023-11-19T04:04:55;3.17;;;2.87;;
11671;SDS011;5892;43.412;24.612;2023-11-19T04:07:22;3.33;;;2.60;;
11671;SDS011;5892;43.412;24.612;2023-11-19T04:09:50;2.87;;;2.67;;
11671;SDS011;5892;43.412;24.612;2023-11-19T04:12:17;3.73;;;3.17;;
11671;SDS011;5892;43.412;24.612;2023-11-19T04:14:44;4.43;;;3.07;;
11671;SDS011;5892;43.412;24.612;2023-11-19T04:17:10;4.23;;;3.17;;
11671;SDS011;5892;43.412;24.612;2023-11-19T04:19:37;3.50;;;3.20;;
11671;SDS011;5892;43.412;24.612;2023-11-19T04:22:06;3.93;;;3.53;;
11671;SDS011;5892;43.412;24.612;2023-11-19T04:24:34;5.80;;;3.23;;
11671;SDS011;5892;43.412;24.612;2023-11-19T04:27:03;3.47;;;3.17;;
11671;SDS011;5892;43.412;24.612;2023-11-19T04:29:31;3.83;;;3.13;;
11671;SDS011;5892;43.412;24.612;2023-11-19T04:31:59;3.90;;;3.50;;
11671;SDS011;5892;43.412;24.612;2023-11-19T04:34:26;4.03;;;3.37;;
11671;SDS011;5892;43.412;24.612;2023-11-19T04:36:53;4.23;;;3.73;;
11671;SDS011;5892;43.412;24.612;2023-11-19T04:39:20;4.27;;;3.87;;
11671;SDS011;5892;43.412;24.612;2023-11-19T04:41:47;5.60;;;3.83;;
11671;SDS011;5892;43.412;24.612;2023-11-19T04:44:16;4.67;;;3.87;;
11671;SDS011;5892;43.412;24.612;2023-11-19T04:46:43;4.50;;;4.10;;
11671;SDS011;5892;43.412;24.612;2023-11-19T04:49:10;4.63;;;3.90;;
11671;SDS011;5892;43.412;24.612;2023-11-19T04:51:38;5.13;;;4.07;;
11671;SDS011;5892;43.412;24.612;2023-11-19T04:54:07;4.27;;;3.77;;
11671;SDS011;5892;43.412;24.612;2023-11-19T04:56:35;4.50;;;4.10;;
11671;SDS011;5892;43.412;24.612;2023-11-19T04:59:03;4.20;;;3.80;;
11671;SDS011;5892;43.412;24.612;2023-11-19T05:01:33;4.37;;;3.97;;
11671;SDS011;5892;43.412;24.612;2023-11-19T05:04:00;5.10;;;4.43;;
11671;SDS011;5892;43.412;24.612;2023-11-19T05:06:28;4.67;;;4.20;;
11671;SDS011;5892;43.412;24.612;2023-11-19T05:08:55;5.80;;;3.93;;
11671;SDS011;5892;43.412;24.612;2023-11-19T05:11:23;4.63;;;4.23;;
11671;SDS011;5892;43.412;24.612;2023-11-19T05:13:50;4.30;;;3.90;;
11671;SDS011;5892;43.412;24.612;2023-11-19T05:16:16;4.67;;;4.10;;
11671;SDS011;5892;43.412;24.612;2023-11-19T05:18:46;4.77;;;4.27;;
11671;SDS011;5892;43.412;24.612;2023-11-19T05:21:13;6.20;;;5.30;;
11671;SDS011;5892;43.412;24.612;2023-11-19T05:23:40;4.87;;;4.40;;
11671;SDS011;5892;43.412;24.612;2023-11-19T05:26:07;4.43;;;4.03;;
11671;SDS011;5892;43.412;24.612;2023-11-19T05:28:37;4.70;;;4.30;;
11671;SDS011;5892;43.412;24.612;2023-11-19T05:31:05;5.53;;;4.47;;
11671;SDS011;5892;43.412;24.612;2023-11-19T05:33:32;5.07;;;4.60;;
11671;SDS011;5892;43.412;24.612;2023-11-19T05:36:00;7.73;;;5.00;;
11671;SDS011;5892;43.412;24.612;2023-11-19T05:38:28;6.10;;;5.40;;
11671;SDS011;5892;43.412;24.612;2023-11-19T05:40:55;5.80;;;5.00;;
11671;SDS011;5892;43.412;24.612;2023-11-19T05:43:22;6.03;;;5.30;;
11671;SDS011;5892;43.412;24.612;2023-11-19T05:45:49;6.23;;;5.10;;
11671;SDS011;5892;43.412;24.612;2023-11-19T05:48:16;5.53;;;4.87;;
11671;SDS011;5892;43.412;24.612;2023-11-19T05:50:43;8.47;;;5.30;;
11671;SDS011;5892;43.412;24.612;2023-11-19T05:53:11;4.77;;;4.27;;
11671;SDS011;5892;43.412;24.612;2023-11-19T05:55:40;4.90;;;4.40;;
11671;SDS011;5892;43.412;24.612;2023-11-19T05:58:13;5.27;;;4.77;;
11671;SDS011;5892;43.412;24.612;2023-11-19T06:00:40;4.97;;;4.47;;
11671;SDS011;5892;43.412;24.612;2023-11-19T06:03:08;4.97;;;4.47;;
11671;SDS011;5892;43.412;24.612;2023-11-19T06:05:35;5.30;;;4.80;;
11671;SDS011;5892;43.412;24.612;2023-11-19T06:08:02;5.10;;;4.60;;
11671;SDS011;5892;43.412;24.612;2023-11-19T06:10:34;6.77;;;4.70;;
11671;SDS011;5892;43.412;24.612;2023-11-19T06:13:01;4.60;;;3.97;;
11671;SDS011;5892;43.412;24.612;2023-11-19T06:15:35;4.97;;;4.47;;
11671;SDS011;5892;43.412;24.612;2023-11-19T06:18:05;5.63;;;4.60;;
11671;SDS011;5892;43.412;24.612;2023-11-19T06:20:32;4.27;;;3.87;;
11671;SDS011;5892;43.412;24.612;2023-11-19T06:23:00;4.77;;;4.20;;
11671;SDS011;5892;43.412;24.612;2023-11-19T06:25:27;4.33;;;3.93;;
11671;SDS011;5892;43.412;24.612;2023-11-19T06:27:55;5.20;;;4.50;;
11671;SDS011;5892;43.412;24.612;2023-11-19T06:30:23;5.30;;;4.13;;
11671;SDS011;5892;43.412;24.612;2023-11-19T06:32:50;5.63;;;4.20;;
11671;SDS011;5892;43.412;24.612;2023-11-19T06:35:17;5.20;;;4.70;;
11671;SDS011;5892;43.412;24.612;2023-11-19T06:37:44;4.70;;;4.30;;
11671;SDS011;5892;43.412;24.612;2023-11-19T06:40:11;5.53;;;5.03;;
11671;SDS011;5892;43.412;24.612;2023-11-19T06:42:40;4.77;;;4.27;;
11671;SDS011;5892;43.412;24.612;2023-11-19T06:45:09;5.33;;;4.30;;
11671;SDS011;5892;43.412;24.612;2023-11-19T06:47:36;4.60;;;4.20;;
11671;SDS011;5892;43.412;24.612;2023-11-19T06:50:03;4.90;;;4.40;;
11671;SDS011;5892;43.412;24.612;2023-11-19T06:52:32;5.00;;;4.50;;
11671;SDS011;5892;43.412;24.612;2023-11-19T06:54:59;7.40;;;4.97;;
11671;SDS011;5892;43.412;24.612;2023-11-19T06:57:26;5.33;;;4.37;;
11671;SDS011;5892;43.412;24.612;2023-11-19T06:59:54;5.50;;;4.67;;
11671;SDS011;5892;43.412;24.612;2023-11-19T07:02:23;6.30;;;4.80;;
11671;SDS011;5892;43.412;24.612;2023-11-19T07:04:50;5.10;;;4.60;;
11671;SDS011;5892;43.412;24.612;2023-11-19T07:07:16;7.87;;;5.10;;
11671;SDS011;5892;43.412;24.612;2023-11-19T07:09:43;5.93;;;4.50;;
11671;SDS011;5892;43.412;24.612;2023-11-19T07:12:10;5.50;;;4.73;;
11671;SDS011;5892;43.412;24.612;2023-11-19T07:14:39;5.30;;;4.63;;
11671;SDS011;5892;43.412;24.612;2023-11-19T07:17:07;5.40;;;4.90;;
11671;SDS011;5892;43.412;24.612;2023-11-19T07:19:35;5.37;;;4.50;;
11671;SDS011;5892;43.412;24.612;2023-11-19T07:22:03;4.97;;;4.47;;
11671;SDS011;5892;43.412;24.612;2023-11-19T07:24:31;5.80;;;4.60;;
11671;SDS011;5892;43.412;24.612;2023-11-19T07:26:58;7.30;;;5.00;;
11671;SDS011;5892;43.412;24.612;2023-11-19T07:29:24;5.30;;;4.70;;
11671;SDS011;5892;43.412;24.612;2023-11-19T07:31:51;5.00;;;4.50;;
11671;SDS011;5892;43.412;24.612;2023-11-19T07:34:18;5.03;;;4.27;;
11671;SDS011;5892;43.412;24.612;2023-11-19T07:36:47;4.50;;;4.10;;
11671;SDS011;5892;43.412;24.612;2023-11-19T07:39:14;4.20;;;3.80;;
11671;SDS011;5892;43.412;24.612;2023-11-19T07:41:41;5.27;;;4.50;;
11671;SDS011;5892;43.412;24.612;2023-11-19T07:44:08;4.83;;;4.40;;
11671;SDS011;5892;43.412;24.612;2023-11-19T07:46:35;4.30;;;3.87;;
11671;SDS011;5892;43.412;24.612;2023-11-19T07:49:02;6.53;;;5.83;;
11671;SDS011;5892;43.412;24.612;2023-11-19T07:51:29;5.87;;;5.00;;
11671;SDS011;5892;43.412;24.612;2023-11-19T07:53:58;4.50;;;4.10;;
11671;SDS011;5892;43.412;24.612;2023-11-19T07:56:25;6.13;;;5.33;;
11671;SDS011;5892;43.412;24.612;2023-11-19T07:58:51;7.73;;;5.27;;
11671;SDS011;5892;43.412;24.612;2023-11-19T08:01:18;6.10;;;4.40;;
11671;SDS011;5892;43.412;24.612;2023-11-19T08:06:55;4.80;;;4.30;;
11671;SDS011;5892;43.412;24.612;2023-11-19T08:09:25;5.43;;;4.00;;
11671;SDS011;5892;43.412;24.612;2023-11-19T08:11:54;6.20;;;4.10;;
11671;SDS011;5892;43.412;24.612;2023-11-19T08:14:30;4.30;;;3.90;;
11671;SDS011;5892;43.412;24.612;2023-11-19T08:16:58;4.63;;;3.83;;
11671;SDS011;5892;43.412;24.612;2023-11-19T08:19:24;4.53;;;3.90;;
11671;SDS011;5892;43.412;24.612;2023-11-19T08:21:51;4.83;;;3.83;;
11671;SDS011;5892;43.412;24.612;2023-11-19T08:24:18;4.87;;;3.90;;
11671;SDS011;5892;43.412;24.612;2023-11-19T08:26:47;4.50;;;4.10;;
11671;SDS011;5892;43.412;24.612;2023-11-19T08:29:13;4.37;;;3.97;;
11671;SDS011;5892;43.412;24.612;2023-11-19T08:31:40;5.83;;;4.80;;
11671;SDS011;5892;43.412;24.612;2023-11-19T08:34:08;5.23;;;4.73;;
11671;SDS011;5892;43.412;24.612;2023-11-19T08:36:35;6.73;;;5.60;;
11671;SDS011;5892;43.412;24.612;2023-11-19T08:39:01;4.80;;;4.30;;
11671;SDS011;5892;43.412;24.612;2023-11-19T08:41:29;4.70;;;4.30;;
11671;SDS011;5892;43.412;24.612;2023-11-19T08:43:57;5.70;;;4.10;;
11671;SDS011;5892;43.412;24.612;2023-11-19T08:46:24;4.83;;;4.43;;
11671;SDS011;5892;43.412;24.612;2023-11-19T08:48:51;5.37;;;4.77;;
11671;SDS011;5892;43.412;24.612;2023-11-19T08:51:21;4.33;;;3.93;;
11671;SDS011;5892;43.412;24.612;2023-11-19T08:53:50;4.83;;;3.90;;
11671;SDS011;5892;43.412;24.612;2023-11-19T08:56:16;7.97;;;5.43;;
11671;SDS011;5892;43.412;24.612;2023-11-19T08:58:43;7.17;;;5.47;;
11671;SDS011;5892;43.412;24.612;2023-11-19T09:01:11;4.53;;;4.13;;
11671;SDS011;5892;43.412;24.612;2023-11-19T09:03:41;5.17;;;4.50;;
11671;SDS011;5892;43.412;24.612;2023-11-19T09:06:08;5.97;;;4.33;;
11671;SDS011;5892;43.412;24.612;2023-11-19T09:08:35;4.30;;;3.90;;
11671;SDS011;5892;43.412;24.612;2023-11-19T09:11:06;5.27;;;4.77;;
11671;SDS011;5892;43.412;24.612;2023-11-19T09:13:37;5.60;;;4.87;;
11671;SDS011;5892;43.412;24.612;2023-11-19T09:16:04;4.27;;;3.87;;
11671;SDS011;5892;43.412;24.612;2023-11-19T09:18:33;4.43;;;3.80;;
11671;SDS011;5892;43.412;24.612;2023-11-19T09:21:01;5.37;;;4.40;;
11671;SDS011;5892;43.412;24.612;2023-11-19T09:23:28;6.57;;;3.73;;
11671;SDS011;5892;43.412;24.612;2023-11-19T09:25:57;4.53;;;3.80;;
11671;SDS011;5892;43.412;24.612;2023-11-19T09:28:25;4.50;;;3.93;;
11671;SDS011;5892;43.412;24.612;2023-11-19T09:30:52;4.67;;;3.73;;
11671;SDS011;5892;43.412;24.612;2023-11-19T09:33:19;4.83;;;4.30;;
11671;SDS011;5892;43.412;24.612;2023-11-19T09:35:47;4.83;;;4.07;;
11671;SDS011;5892;43.412;24.612;2023-11-19T09:38:22;7.33;;;4.90;;
11671;SDS011;5892;43.412;24.612;2023-11-19T09:40:49;5.10;;;4.60;;
11671;SDS011;5892;43.412;24.612;2023-11-19T09:43:17;5.83;;;5.20;;
11671;SDS011;5892;43.412;24.612;2023-11-19T09:45:47;5.70;;;5.10;;
11671;SDS011;5892;43.412;24.612;2023-11-19T09:48:16;5.23;;;4.67;;
11671;SDS011;5892;43.412;24.612;2023-11-19T09:50:48;6.93;;;5.53;;
11671;SDS011;5892;43.412;24.612;2023-11-19T09:53:15;7.00;;;6.03;;
11671;SDS011;5892;43.412;24.612;2023-11-19T09:55:42;5.67;;;5.07;;
11671;SDS011;5892;43.412;24.612;2023-11-19T09:58:09;4.73;;;4.30;;
11671;SDS011;5892;43.412;24.612;2023-11-19T10:00:40;6.50;;;4.80;;
11671;SDS011;5892;43.412;24.612;2023-11-19T10:03:07;5.80;;;5.13;;
11671;SDS011;5892;43.412;24.612;2023-11-19T10:05:38;4.57;;;3.80;;
11671;SDS011;5892;43.412;24.612;2023-11-19T10:08:07;3.57;;;3.27;;
11671;SDS011;5892;43.412;24.612;2023-11-19T10:10:36;9.33;;;3.80;;
11671;SDS011;5892;43.412;24.612;2023-11-19T10:13:04;3.80;;;3.50;;
11671;SDS011;5892;43.412;24.612;2023-11-19T10:15:33;4.47;;;3.87;;
11671;SDS011;5892;43.412;24.612;2023-11-19T10:18:02;4.67;;;4.17;;
11671;SDS011;5892;43.412;24.612;2023-11-19T10:20:34;6.10;;;4.37;;
11671;SDS011;5892;43.412;24.612;2023-11-19T10:23:02;5.50;;;4.77;;
11671;SDS011;5892;43.412;24.612;2023-11-19T10:25:30;5.57;;;4.97;;
11671;SDS011;5892;43.412;24.612;2023-11-19T10:28:00;5.73;;;5.10;;
11671;SDS011;5892;43.412;24.612;2023-11-19T10:30:27;5.00;;;4.50;;
11671;SDS011;5892;43.412;24.612;2023-11-19T10:33:05;4.77;;;4.30;;
11671;SDS011;5892;43.412;24.612;2023-11-19T10:35:33;5.57;;;4.47;;
11671;SDS011;5892;43.412;24.612;2023-11-19T10:38:00;4.60;;;4.13;;
11671;SDS011;5892;43.412;24.612;2023-11-19T10:40:38;4.60;;;4.00;;
11671;SDS011;5892;43.412;24.612;2023-11-19T10:43:06;4.80;;;4.00;;
11671;SDS011;5892;43.412;24.612;2023-11-19T10:45:34;4.20;;;3.77;;
11671;SDS011;5892;43.412;24.612;2023-11-19T10:48:01;4.50;;;4.10;;
11671;SDS011;5892;43.412;24.612;2023-11-19T10:50:29;5.13;;;4.00;;
11671;SDS011;5892;43.412;24.612;2023-11-19T10:52:56;4.30;;;3.90;;
11671;SDS011;5892;43.412;24.612;2023-11-19T10:55:26;4.30;;;3.90;;
11671;SDS011;5892;43.412;24.612;2023-11-19T10:57:56;7.07;;;4.60;;
11671;SDS011;5892;43.412;24.612;2023-11-19T11:00:26;4.00;;;3.60;;
11671;SDS011;5892;43.412;24.612;2023-11-19T11:03:00;5.37;;;4.00;;
11671;SDS011;5892;43.412;24.612;2023-11-19T11:05:27;4.53;;;4.13;;
11671;SDS011;5892;43.412;24.612;2023-11-19T11:07:58;6.77;;;4.60;;
11671;SDS011;5892;43.412;24.612;2023-11-19T11:10:27;4.70;;;4.27;;
11671;SDS011;5892;43.412;24.612;2023-11-19T11:13:00;4.40;;;3.87;;
11671;SDS011;5892;43.412;24.612;2023-11-19T11:15:29;4.83;;;4.00;;
11671;SDS011;5892;43.412;24.612;2023-11-19T11:17:59;4.37;;;3.73;;
11671;SDS011;5892;43.412;24.612;2023-11-19T11:20:28;3.97;;;3.50;;
11671;SDS011;5892;43.412;24.612;2023-11-19T11:23:00;4.10;;;3.70;;
11671;SDS011;5892;43.412;24.612;2023-11-19T11:25:51;9.83;;;7.77;;
11671;SDS011;5892;43.412;24.612;2023-11-19T11:28:30;4.37;;;3.97;;
11671;SDS011;5892;43.412;24.612;2023-11-19T11:34:09;4.50;;;4.07;;
11671;SDS011;5892;43.412;24.612;2023-11-19T11:36:53;3.90;;;3.60;;
11671;SDS011;5892;43.412;24.612;2023-11-19T11:39:29;4.73;;;3.70;;
11671;SDS011;5892;43.412;24.612;2023-11-19T11:45:03;5.03;;;4.40;;
11671;SDS011;5892;43.412;24.612;2023-11-19T11:50:52;4.37;;;3.97;;
11671;SDS011;5892;43.412;24.612;2023-11-19T11:53:21;4.50;;;4.00;;
11671;SDS011;5892;43.412;24.612;2023-11-19T11:55:56;4.43;;;4.03;;
11671;SDS011;5892;43.412;24.612;2023-11-19T11:58:26;4.30;;;3.90;;
11671;SDS011;5892;43.412;24.612;2023-11-19T12:00:59;4.10;;;3.70;;
11671;SDS011;5892;43.412;24.612;2023-11-19T12:03:32;4.73;;;4.33;;
11671;SDS011;5892;43.412;24.612;2023-11-19T12:06:05;4.27;;;3.87;;
11671;SDS011;5892;43.412;24.612;2023-11-19T12:08:33;4.73;;;4.33;;
11671;SDS011;5892;43.412;24.612;2023-11-19T12:11:01;5.53;;;4.70;;
11671;SDS011;5892;43.412;24.612;2023-11-19T12:13:52;7.00;;;4.50;;
11671;SDS011;5892;43.412;24.612;2023-11-19T12:16:24;4.20;;;3.77;;
11671;SDS011;5892;43.412;24.612;2023-11-19T12:18:53;4.13;;;3.73;;
11671;SDS011;5892;43.412;24.612;2023-11-19T12:21:27;4.60;;;4.10;;
11671;SDS011;5892;43.412;24.612;2023-11-19T12:23:55;6.93;;;4.37;;
11671;SDS011;5892;43.412;24.612;2023-11-19T12:26:35;3.90;;;3.60;;
11671;SDS011;5892;43.412;24.612;2023-11-19T12:29:04;4.73;;;4.10;;
11671;SDS011;5892;43.412;24.612;2023-11-19T12:31:33;4.30;;;3.90;;
11671;SDS011;5892;43.412;24.612;2023-11-19T12:34:06;4.37;;;3.93;;
11671;SDS011;5892;43.412;24.612;2023-11-19T12:36:39;5.63;;;3.97;;
11671;SDS011;5892;43.412;24.612;2023-11-19T12:39:08;4.53;;;4.13;;
11671;SDS011;5892;43.412;24.612;2023-11-19T12:41:50;7.60;;;3.87;;
11671;SDS011;5892;43.412;24.612;2023-11-19T12:44:19;3.87;;;3.57;;
11671;SDS011;5892;43.412;24.612;2023-11-19T12:46:47;3.70;;;3.40;;
11671;SDS011;5892;43.412;24.612;2023-11-19T12:49:26;3.80;;;3.50;;
11671;SDS011;5892;43.412;24.612;2023-11-19T12:51:53;4.33;;;3.93;;
11671;SDS011;5892;43.412;24.612;2023-11-19T12:54:20;6.90;;;4.60;;
11671;SDS011;5892;43.412;24.612;2023-11-19T12:56:57;4.07;;;3.50;;
11671;SDS011;5892;43.412;24.612;2023-11-19T12:59:25;3.50;;;3.20;;
11671;SDS011;5892;43.412;24.612;2023-11-19T13:01:57;3.83;;;3.30;;
11671;SDS011;5892;43.412;24.612;2023-11-19T13:04:27;4.10;;;3.70;;
11671;SDS011;5892;43.412;24.612;2023-11-19T13:06:56;3.87;;;3.47;;
11671;SDS011;5892;43.412;24.612;2023-11-19T13:09:23;3.80;;;3.47;;
11671;SDS011;5892;43.412;24.612;2023-11-19T13:11:51;4.37;;;3.30;;
11671;SDS011;5892;43.412;24.612;2023-11-19T13:14:18;3.40;;;3.10;;
11671;SDS011;5892;43.412;24.612;2023-11-19T13:16:46;3.37;;;3.07;;
11671;SDS011;5892;43.412;24.612;2023-11-19T13:19:14;3.40;;;3.10;;
11671;SDS011;5892;43.412;24.612;2023-11-19T13:21:44;3.37;;;3.03;;
11671;SDS011;5892;43.412;24.612;2023-11-19T13:24:12;4.07;;;3.47;;
11671;SDS011;5892;43.412;24.612;2023-11-19T13:26:39;3.80;;;3.50;;
11671;SDS011;5892;43.412;24.612;2023-11-19T13:29:06;3.83;;;3.53;;
11671;SDS011;5892;43.412;24.612;2023-11-19T13:31:33;3.60;;;3.30;;
11671;SDS011;5892;43.412;24.612;2023-11-19T13:34:02;3.70;;;3.20;;
11671;SDS011;5892;43.412;24.612;2023-11-19T13:36:30;3.50;;;3.20;;
11671;SDS011;5892;43.412;24.612;2023-11-19T13:38:57;3.60;;;3.30;;
11671;SDS011;5892;43.412;24.612;2023-11-19T13:41:25;3.90;;;3.60;;
11671;SDS011;5892;43.412;24.612;2023-11-19T13:43:52;3.30;;;3.00;;
11671;SDS011;5892;43.412;24.612;2023-11-19T13:46:20;5.97;;;3.00;;
11671;SDS011;5892;43.412;24.612;2023-11-19T13:48:47;3.40;;;3.00;;
11671;SDS011;5892;43.412;24.612;2023-11-19T13:51:14;3.87;;;3.47;;
11671;SDS011;5892;43.412;24.612;2023-11-19T13:53:43;7.83;;;3.70;;
11671;SDS011;5892;43.412;24.612;2023-11-19T13:56:10;3.43;;;3.13;;
11671;SDS011;5892;43.412;24.612;2023-11-19T13:58:37;4.50;;;3.43;;
11671;SDS011;5892;43.412;24.612;2023-11-19T14:01:05;3.10;;;2.90;;
11671;SDS011;5892;43.412;24.612;2023-11-19T14:03:32;6.53;;;4.73;;
11671;SDS011;5892;43.412;24.612;2023-11-19T14:05:59;4.60;;;3.60;;
11671;SDS011;5892;43.412;24.612;2023-11-19T14:08:27;7.20;;;5.50;;
11671;SDS011;5892;43.412;24.612;2023-11-19T14:10:56;4.37;;;3.00;;
11671;SDS011;5892;43.412;24.612;2023-11-19T14:13:24;5.17;;;3.50;;
11671;SDS011;5892;43.412;24.612;2023-11-19T14:15:51;5.13;;;4.07;;
11671;SDS011;5892;43.412;24.612;2023-11-19T14:18:19;4.47;;;3.30;;
11671;SDS011;5892;43.412;24.612;2023-11-19T14:20:46;3.93;;;2.90;;
11671;SDS011;5892;43.412;24.612;2023-11-19T14:23:13;4.17;;;3.70;;
11671;SDS011;5892;43.412;24.612;2023-11-19T14:25:41;4.33;;;3.50;;
11671;SDS011;5892;43.412;24.612;2023-11-19T14:28:09;4.37;;;3.97;;
11671;SDS011;5892;43.412;24.612;2023-11-19T14:30:36;4.70;;;4.23;;
11671;SDS011;5892;43.412;24.612;2023-11-19T14:33:03;4.90;;;4.00;;
11671;SDS011;5892;43.412;24.612;2023-11-19T14:35:30;4.13;;;3.73;;
11671;SDS011;5892;43.412;24.612;2023-11-19T14:37:59;4.37;;;3.97;;
11671;SDS011;5892;43.412;24.612;2023-11-19T14:40:29;4.53;;;3.80;;
11671;SDS011;5892;43.412;24.612;2023-11-19T14:42:57;5.43;;;4.93;;
11671;SDS011;5892;43.412;24.612;2023-11-19T14:45:25;4.53;;;4.13;;
11671;SDS011;5892;43.412;24.612;2023-11-19T14:47:52;4.13;;;3.70;;
11671;SDS011;5892;43.412;24.612;2023-11-19T14:50:20;5.37;;;3.90;;
11671;SDS011;5892;43.412;24.612;2023-11-19T14:52:46;4.00;;;3.50;;
11671;SDS011;5892;43.412;24.612;2023-11-19T14:55:18;4.37;;;3.70;;
11671;SDS011;5892;43.412;24.612;2023-11-19T14:57:48;3.93;;;3.53;;
11671;SDS011;5892;43.412;24.612;2023-11-19T15:00:16;4.87;;;4.00;;
11671;SDS011;5892;43.412;24.612;2023-11-19T15:02:45;3.80;;;3.50;;
11671;SDS011;5892;43.412;24.612;2023-11-19T15:05:12;5.53;;;3.53;;
11671;SDS011;5892;43.412;24.612;2023-11-19T15:07:43;4.50;;;4.10;;